createdAt,value
2018-08-12T00:02:23.653Z,10.73
2018-08-12T00:04:57.885Z,10.70
2018-08-12T00:07:31.348Z,10.63
2018-08-12T00:10:09.997Z,10.64
2018-08-12T00:12:44.773Z,10.51
2018-08-12T00:15:21.482Z,10.42
2018-08-12T00:17:57.351Z,10.40
2018-08-12T00:20:30.812Z,10.34
2018-08-12T00:23:04.902Z,10.35
2018-08-12T00:25:38.325Z,10.38
2018-08-12T00:28:11.020Z,10.30
2018-08-12T00:30:59.534Z,10.21
2018-08-12T00:33:35.284Z,10.16
2018-08-12T00:36:09.703Z,10.30
2018-08-12T00:38:43.797Z,10.28
2018-08-12T00:41:17.102Z,10.25
2018-08-12T00:43:51.368Z,10.22
2018-08-12T00:46:28.674Z,10.26
2018-08-12T00:49:01.938Z,10.30
2018-08-12T00:51:39.069Z,10.34
2018-08-12T00:54:15.045Z,10.37
2018-08-12T00:56:47.886Z,10.34
2018-08-12T00:59:22.650Z,10.28
2018-08-12T01:01:55.317Z,10.20
2018-08-12T01:04:28.330Z,10.14
2018-08-12T01:07:01.550Z,10.12
2018-08-12T01:09:35.274Z,10.15
2018-08-12T01:12:08.141Z,10.25
2018-08-12T01:14:41.870Z,10.16
2018-08-12T01:17:14.309Z,10.05
2018-08-12T01:19:47.154Z,9.94
2018-08-12T01:22:20.508Z,10.01
2018-08-12T01:24:56.904Z,10.06
2018-08-12T01:27:33.355Z,9.99
2018-08-12T01:30:14.106Z,10.07
2018-08-12T01:32:48.365Z,9.97
2018-08-12T01:35:22.353Z,9.94
2018-08-12T01:37:55.235Z,9.93
2018-08-12T01:40:27.965Z,9.92
2018-08-12T01:43:02.095Z,9.76
2018-08-12T01:45:36.828Z,9.67
2018-08-12T01:48:12.487Z,9.57
2018-08-12T01:50:45.009Z,9.58
2018-08-12T01:53:21.976Z,9.82
2018-08-12T01:55:54.497Z,10.04
2018-08-12T01:58:28.781Z,10.16
2018-08-12T02:01:03.465Z,10.30
2018-08-12T02:03:36.057Z,10.33
2018-08-12T02:06:10.022Z,10.32
2018-08-12T02:08:44.258Z,10.07
2018-08-12T02:11:17.474Z,9.94
2018-08-12T02:13:50.744Z,9.90
2018-08-12T02:16:23.937Z,9.85
2018-08-12T02:18:56.935Z,9.81
2018-08-12T02:21:29.476Z,9.81
2018-08-12T02:24:02.940Z,9.75
2018-08-12T02:26:35.348Z,9.73
2018-08-12T02:29:07.688Z,9.79
2018-08-12T02:31:41.634Z,9.83
2018-08-12T02:34:14.925Z,9.85
2018-08-12T02:36:47.319Z,9.92
2018-08-12T02:39:22.066Z,9.90
2018-08-12T02:41:55.319Z,9.93
2018-08-12T02:44:28.053Z,10.05
2018-08-12T02:47:01.813Z,10.14
2018-08-12T02:49:35.042Z,10.18
2018-08-12T02:52:10.252Z,10.19
2018-08-12T02:54:44.045Z,10.28
2018-08-12T02:57:16.725Z,10.42
2018-08-12T02:59:50.249Z,10.66
2018-08-12T03:02:23.011Z,10.86
2018-08-12T03:04:55.664Z,11.07
2018-08-12T03:07:29.200Z,11.32
2018-08-12T03:10:02.093Z,11.42
2018-08-12T03:12:34.853Z,11.49
2018-08-12T03:15:10.661Z,11.54
2018-08-12T03:17:44.732Z,11.57
2018-08-12T03:20:17.417Z,11.65
2018-08-12T03:22:50.353Z,11.72
2018-08-12T03:25:23.219Z,11.80
2018-08-12T03:27:56.260Z,11.89
2018-08-12T03:30:31.754Z,11.83
2018-08-12T03:33:04.856Z,11.79
2018-08-12T03:35:38.049Z,11.83
2018-08-12T03:38:11.399Z,11.90
2018-08-12T03:40:44.433Z,11.78
2018-08-12T03:43:18.426Z,11.82
2018-08-12T03:45:52.172Z,11.91
2018-08-12T03:48:25.203Z,11.87
2018-08-12T03:50:59.111Z,11.80
2018-08-12T03:53:31.612Z,11.85
2018-08-12T03:56:04.669Z,11.93
2018-08-12T03:58:37.760Z,12.02
2018-08-12T04:01:10.994Z,12.07
2018-08-12T04:03:44.912Z,12.08
2018-08-12T04:06:21.172Z,11.93
2018-08-12T04:08:53.788Z,11.71
2018-08-12T04:11:26.352Z,11.55
2018-08-12T04:14:05.297Z,11.40
2018-08-12T04:16:37.932Z,11.32
2018-08-12T04:19:10.910Z,11.21
2018-08-12T04:21:44.105Z,11.23
2018-08-12T04:24:16.841Z,11.34
2018-08-12T04:26:49.816Z,11.38
2018-08-12T04:29:24.382Z,11.39
2018-08-12T04:31:56.943Z,11.41
2018-08-12T04:34:30.570Z,11.41
2018-08-12T04:37:05.065Z,11.52
2018-08-12T04:39:37.598Z,11.62
2018-08-12T04:42:10.310Z,11.71
2018-08-12T04:44:44.832Z,11.94
2018-08-12T04:47:18.188Z,12.21
2018-08-12T04:49:50.797Z,12.48
2018-08-12T04:52:24.840Z,12.77
2018-08-12T04:54:57.688Z,13.08
2018-08-12T04:57:30.349Z,13.31
2018-08-12T05:00:05.041Z,13.50
2018-08-12T05:02:38.361Z,13.66
2018-08-12T05:05:12.033Z,13.90
2018-08-12T05:07:45.988Z,14.20
2018-08-12T05:10:18.571Z,14.45
2018-08-12T05:12:51.776Z,14.60
2018-08-12T05:15:24.864Z,14.74
2018-08-12T05:18:03.525Z,14.91
2018-08-12T05:20:36.124Z,15.05
2018-08-12T05:23:09.290Z,15.20
2018-08-12T05:25:42.017Z,15.37
2018-08-12T05:28:14.833Z,15.47
2018-08-12T05:30:47.842Z,15.53
2018-08-12T05:33:20.445Z,15.55
2018-08-12T05:35:54.031Z,15.57
2018-08-12T05:38:27.426Z,15.64
2018-08-12T05:41:00.616Z,15.67
2018-08-12T05:43:33.113Z,15.71
2018-08-12T05:46:09.255Z,15.77
2018-08-12T05:48:42.050Z,15.80
2018-08-12T05:51:15.257Z,15.90
2018-08-12T05:53:49.953Z,16.07
2018-08-12T05:56:22.540Z,16.23
2018-08-12T05:58:55.265Z,16.36
2018-08-12T06:01:29.133Z,16.52
2018-08-12T06:04:02.018Z,16.71
2018-08-12T06:06:35.823Z,16.91
2018-08-12T06:09:11.192Z,17.12
2018-08-12T06:11:43.853Z,17.26
2018-08-12T06:14:18.964Z,17.40
2018-08-12T06:16:52.269Z,17.50
2018-08-12T06:19:26.016Z,17.61
2018-08-12T06:22:00.228Z,17.67
2018-08-12T06:24:33.940Z,17.73
2018-08-12T06:27:07.260Z,17.78
2018-08-12T06:29:39.759Z,17.82
2018-08-12T06:32:12.808Z,17.82
2018-08-12T06:34:46.230Z,17.88
2018-08-12T06:37:19.777Z,17.94
2018-08-12T06:39:53.251Z,17.90
2018-08-12T06:42:25.871Z,17.85
2018-08-12T06:45:03.917Z,17.80
2018-08-12T06:47:38.056Z,17.76
2018-08-12T06:50:12.661Z,17.77
2018-08-12T06:52:49.027Z,17.74
2018-08-12T06:55:21.581Z,17.77
2018-08-12T06:57:59.445Z,17.84
2018-08-12T07:00:34.824Z,17.93
2018-08-12T07:03:13.693Z,18.03
2018-08-12T07:05:46.474Z,18.15
2018-08-12T07:08:20.158Z,18.27
2018-08-12T07:10:56.929Z,18.40
2018-08-12T07:13:31.549Z,18.55
2018-08-12T07:16:06.933Z,18.70
2018-08-12T07:18:41.833Z,18.78
2018-08-12T07:21:14.901Z,18.82
2018-08-12T07:23:47.501Z,18.90
2018-08-12T07:26:30.690Z,19.17
2018-08-12T07:29:05.497Z,19.74
2018-08-12T07:31:39.358Z,20.07
2018-08-12T07:34:13.197Z,20.39
2018-08-12T07:36:46.338Z,21.18
2018-08-12T07:39:19.989Z,22.08
2018-08-12T07:41:52.626Z,22.82
2018-08-12T07:44:25.600Z,22.87
2018-08-12T07:47:00.026Z,23.17
2018-08-12T07:49:34.797Z,23.54
2018-08-12T07:52:09.530Z,23.73
2018-08-12T07:54:52.857Z,23.41
2018-08-12T07:57:28.348Z,23.13
2018-08-12T08:00:09.429Z,22.84
2018-08-12T08:02:42.292Z,22.80
2018-08-12T08:05:16.098Z,22.94
2018-08-12T08:07:53.449Z,23.39
2018-08-12T08:10:28.350Z,23.71
2018-08-12T08:13:02.664Z,23.87
2018-08-12T08:15:36.329Z,23.93
2018-08-12T08:18:08.994Z,24.17
2018-08-12T08:20:42.927Z,24.45
2018-08-12T08:23:16.651Z,24.62
2018-08-12T08:25:50.770Z,24.26
2018-08-12T08:28:24.970Z,23.64
2018-08-12T08:30:59.047Z,23.06
2018-08-12T08:33:33.767Z,22.94
2018-08-12T08:36:07.996Z,23.13
2018-08-12T08:38:42.230Z,23.57
2018-08-12T08:41:15.675Z,24.00
2018-08-12T08:43:48.547Z,24.31
2018-08-12T08:46:27.332Z,24.45
2018-08-12T08:49:23.869Z,24.72
2018-08-12T08:52:00.956Z,25.35
2018-08-12T08:54:37.422Z,26.07
2018-08-12T08:57:13.294Z,26.31
2018-08-12T08:59:45.988Z,25.86
2018-08-12T09:02:21.720Z,25.58
2018-08-12T09:04:56.704Z,25.37
2018-08-12T09:07:30.452Z,25.62
2018-08-12T09:10:03.786Z,25.66
2018-08-12T09:12:38.168Z,25.63
2018-08-12T09:15:15.724Z,25.76
2018-08-12T09:17:51.446Z,25.57
2018-08-12T09:20:26.784Z,25.79
2018-08-12T09:23:04.572Z,25.83
2018-08-12T09:25:37.099Z,25.85
2018-08-12T09:28:13.716Z,26.11
2018-08-12T09:30:49.694Z,26.33
2018-08-12T09:33:23.338Z,26.17
2018-08-12T09:35:57.807Z,26.55
2018-08-12T09:38:31.100Z,26.64
2018-08-12T09:41:05.177Z,26.43
2018-08-12T09:43:40.881Z,26.44
2018-08-12T09:46:16.681Z,26.66
2018-08-12T09:48:53.803Z,26.65
2018-08-12T09:51:27.230Z,26.61
2018-08-12T09:54:05.436Z,26.67
2018-08-12T09:56:41.684Z,26.61
2018-08-12T09:59:15.380Z,26.72
2018-08-12T10:01:48.267Z,26.90
2018-08-12T10:04:24.391Z,27.33
2018-08-12T10:07:01.587Z,27.07
2018-08-12T10:09:35.280Z,27.41
2018-08-12T10:12:08.940Z,27.75
2018-08-12T10:14:44.609Z,27.82
2018-08-12T10:17:19.873Z,27.58
2018-08-12T10:19:52.729Z,27.39
2018-08-12T10:22:32.726Z,27.50
2018-08-12T10:25:09.684Z,27.89
2018-08-12T10:27:47.540Z,27.94
2018-08-12T10:30:20.538Z,28.27
2018-08-12T10:32:54.093Z,28.50
2018-08-12T10:35:29.383Z,28.64
2018-08-12T10:38:03.004Z,28.66
2018-08-12T10:40:37.647Z,28.27
2018-08-12T10:43:10.357Z,27.95
2018-08-12T10:45:50.422Z,27.70
2018-08-12T10:48:23.763Z,27.67
2018-08-12T10:50:57.010Z,27.95
2018-08-12T10:53:33.356Z,28.24
2018-08-12T10:56:10.374Z,28.24
2018-08-12T10:58:44.969Z,28.35
2018-08-12T11:01:19.795Z,28.51
2018-08-12T11:03:53.955Z,28.37
2018-08-12T11:06:34.845Z,29.02
2018-08-12T11:09:10.589Z,29.10
2018-08-12T11:11:50.081Z,29.22
2018-08-12T11:14:23.518Z,29.76
2018-08-12T11:16:57.306Z,29.88
2018-08-12T11:19:32.460Z,29.78
2018-08-12T11:22:06.410Z,29.55
2018-08-12T11:24:40.625Z,29.69
2018-08-12T11:27:16.310Z,30.06
2018-08-12T11:29:50.796Z,30.65
2018-08-12T11:32:24.854Z,30.86
2018-08-12T11:35:01.427Z,30.36
2018-08-12T11:37:40.429Z,29.87
2018-08-12T11:40:17.278Z,29.53
2018-08-12T11:42:50.513Z,29.15
2018-08-12T11:45:24.560Z,29.61
2018-08-12T11:47:58.376Z,29.75
2018-08-12T11:50:32.938Z,29.87
2018-08-12T11:53:06.668Z,29.71
2018-08-12T11:55:43.870Z,29.43
2018-08-12T11:58:24.297Z,29.93
2018-08-12T12:00:57.600Z,30.58
2018-08-12T12:03:38.231Z,30.99
2018-08-12T12:06:11.890Z,31.19
2018-08-12T12:08:47.164Z,31.45
2018-08-12T12:11:37.464Z,31.74
2018-08-12T12:14:13.205Z,31.61
2018-08-12T12:16:46.221Z,31.86
2018-08-12T12:19:23.150Z,31.63
2018-08-12T12:21:57.523Z,31.60
2018-08-12T12:24:31.255Z,31.62
2018-08-12T12:27:08.184Z,31.12
2018-08-12T12:29:40.977Z,30.64
2018-08-12T12:32:14.405Z,30.19
2018-08-12T12:34:50.379Z,30.11
2018-08-12T12:37:23.843Z,30.48
2018-08-12T12:40:01.365Z,30.41
2018-08-12T12:42:35.589Z,30.47
2018-08-12T12:45:12.926Z,30.63
2018-08-12T12:47:47.118Z,30.66
2018-08-12T12:50:26.301Z,30.52
2018-08-12T12:53:00.176Z,30.75
2018-08-12T12:55:39.321Z,30.87
2018-08-12T12:58:16.358Z,31.18
2018-08-12T13:00:49.532Z,31.01
2018-08-12T13:03:22.619Z,31.17
2018-08-12T13:05:55.846Z,31.48
2018-08-12T13:08:32.397Z,32.01
2018-08-12T13:11:06.895Z,32.44
2018-08-12T13:13:45.862Z,32.73
2018-08-12T13:16:23.673Z,32.74
2018-08-12T13:19:03.426Z,32.05
2018-08-12T13:21:39.118Z,31.47
2018-08-12T13:24:14.640Z,31.80
2018-08-12T13:26:53.202Z,32.59
2018-08-12T13:29:25.920Z,33.09
2018-08-12T13:32:05.732Z,33.31
2018-08-12T13:34:39.597Z,33.05
2018-08-12T13:37:17.063Z,32.68
2018-08-12T13:39:54.764Z,32.45
2018-08-12T13:42:30.609Z,32.37
2018-08-12T13:45:14.215Z,32.52
2018-08-12T13:47:48.732Z,32.86
2018-08-12T13:50:24.666Z,33.05
2018-08-12T13:52:57.581Z,32.85
2018-08-12T13:55:36.773Z,32.56
2018-08-12T13:58:09.585Z,32.93
2018-08-12T14:00:43.037Z,33.40
2018-08-12T14:03:17.420Z,33.01
2018-08-12T14:05:51.397Z,32.93
2018-08-12T14:08:26.137Z,32.55
2018-08-12T14:10:59.945Z,32.21
2018-08-12T14:13:36.612Z,32.12
2018-08-12T14:16:13.620Z,31.94
2018-08-12T14:18:49.810Z,31.74
2018-08-12T14:21:24.431Z,32.31
2018-08-12T14:23:57.252Z,32.68
2018-08-12T14:26:39.743Z,32.92
2018-08-12T14:29:30.560Z,33.12
2018-08-12T14:32:08.023Z,33.40
2018-08-12T14:34:48.049Z,33.72
2018-08-12T14:37:33.508Z,33.95
2018-08-12T14:40:11.137Z,33.97
2018-08-12T14:42:45.154Z,34.22
2018-08-12T14:45:19.330Z,34.48
2018-08-12T14:47:52.601Z,34.60
2018-08-12T14:50:26.651Z,34.15
2018-08-12T14:53:02.280Z,34.05
2018-08-12T14:55:36.649Z,33.94
2018-08-12T14:58:12.674Z,33.56
2018-08-12T15:00:46.455Z,33.58
2018-08-12T15:03:19.194Z,34.08
2018-08-12T15:05:53.562Z,33.77
2018-08-12T15:08:27.913Z,33.15
2018-08-12T15:11:15.990Z,32.41
2018-08-12T15:13:58.281Z,31.90
2018-08-12T15:16:38.987Z,31.73
2018-08-12T15:19:19.203Z,31.61
2018-08-12T15:22:01.295Z,31.55
2018-08-12T15:24:37.166Z,31.66
2018-08-12T15:27:11.575Z,31.34
2018-08-12T15:29:46.473Z,31.39
2018-08-12T15:32:24.990Z,31.64
2018-08-12T15:35:10.081Z,31.92
2018-08-12T15:37:47.752Z,32.18
2018-08-12T15:40:24.022Z,32.30
2018-08-12T15:43:04.140Z,32.25
2018-08-12T15:45:37.236Z,32.22
2018-08-12T15:48:12.643Z,32.39
2018-08-12T15:50:52.496Z,32.40
2018-08-12T15:53:27.712Z,32.13
2018-08-12T15:56:01.784Z,32.05
2018-08-12T15:58:36.742Z,32.09
2018-08-12T16:01:09.558Z,31.99
2018-08-12T16:03:42.309Z,31.96
2018-08-12T16:06:16.199Z,31.98
2018-08-12T16:08:49.317Z,32.30
2018-08-12T16:11:25.562Z,32.82
2018-08-12T16:13:59.815Z,33.19
2018-08-12T16:16:36.092Z,33.47
2018-08-12T16:19:18.759Z,33.49
2018-08-12T16:21:57.812Z,33.50
2018-08-12T16:24:30.720Z,33.30
2018-08-12T16:27:03.627Z,32.60
2018-08-12T16:29:39.253Z,31.87
2018-08-12T16:32:21.662Z,31.36
2018-08-12T16:34:59.462Z,31.13
2018-08-12T16:37:32.209Z,31.03
2018-08-12T16:40:17.334Z,30.88
2018-08-12T16:42:51.133Z,30.86
2018-08-12T16:45:24.909Z,31.04
2018-08-12T16:48:01.249Z,31.41
2018-08-12T16:50:33.889Z,31.89
2018-08-12T16:53:14.902Z,31.92
2018-08-12T16:55:55.193Z,31.49
2018-08-12T16:58:32.673Z,31.25
2018-08-12T17:01:22.114Z,31.12
2018-08-12T17:04:02.341Z,31.04
2018-08-12T17:06:37.632Z,30.87
2018-08-12T17:09:14.522Z,30.86
2018-08-12T17:11:50.440Z,30.87
2018-08-12T17:14:26.264Z,30.80
2018-08-12T17:17:03.945Z,30.64
2018-08-12T17:19:37.191Z,30.56
2018-08-12T17:22:13.443Z,30.52
2018-08-12T17:24:47.695Z,30.62
2018-08-12T17:27:24.340Z,30.56
2018-08-12T17:29:58.366Z,30.39
2018-08-12T17:32:31.877Z,30.06
2018-08-12T17:35:06.448Z,29.74
2018-08-12T17:37:47.915Z,29.45
2018-08-12T17:40:23.138Z,29.28
2018-08-12T17:43:00.022Z,29.09
2018-08-12T17:45:33.592Z,28.95
2018-08-12T17:48:06.935Z,28.79
2018-08-12T17:50:50.776Z,28.61
2018-08-12T17:53:25.241Z,28.37
2018-08-12T17:56:00.930Z,28.22
2018-08-12T17:58:35.897Z,28.08
2018-08-12T18:01:14.123Z,27.97
2018-08-12T18:03:48.257Z,27.84
2018-08-12T18:06:21.287Z,27.72
2018-08-12T18:08:57.810Z,27.61
2018-08-12T18:11:30.335Z,27.49
2018-08-12T18:14:05.792Z,27.37
2018-08-12T18:16:38.795Z,27.23
2018-08-12T18:19:11.394Z,27.11
2018-08-12T18:21:44.989Z,26.99
2018-08-12T18:24:22.243Z,26.86
2018-08-12T18:26:55.726Z,26.72
2018-08-12T18:29:32.055Z,26.62
2018-08-12T18:32:06.108Z,26.56
2018-08-12T18:34:39.903Z,26.47
2018-08-12T18:37:19.242Z,26.36
2018-08-12T18:40:05.700Z,26.20
2018-08-12T18:42:42.317Z,26.04
2018-08-12T18:45:24.931Z,25.88
2018-08-12T18:48:03.973Z,25.70
2018-08-12T18:50:45.202Z,25.52
2018-08-12T18:53:21.737Z,25.33
2018-08-12T18:55:56.274Z,25.16
2018-08-12T18:58:30.366Z,24.94
2018-08-12T19:01:10.890Z,24.73
2018-08-12T19:03:47.489Z,24.48
2018-08-12T19:06:26.947Z,24.33
2018-08-12T19:09:16.234Z,24.17
2018-08-12T19:12:18.005Z,24.03
2018-08-12T19:14:59.568Z,23.83
2018-08-12T19:17:40.271Z,23.72
2018-08-12T19:20:19.571Z,23.61
2018-08-12T19:22:58.395Z,23.50
2018-08-12T19:25:32.919Z,23.33
2018-08-12T19:28:15.493Z,23.18
2018-08-12T19:30:55.872Z,23.03
2018-08-12T19:33:30.485Z,22.89
2018-08-12T19:36:06.977Z,22.81
2018-08-12T19:38:39.660Z,22.73
2018-08-12T19:41:13.721Z,22.67
2018-08-12T19:43:49.493Z,22.56
2018-08-12T19:46:30.805Z,22.45
2018-08-12T19:49:16.218Z,22.33
2018-08-12T19:51:56.498Z,22.21
2018-08-12T19:54:40.973Z,22.13
2018-08-12T19:57:21.549Z,22.02
2018-08-12T19:59:58.707Z,21.93
2018-08-12T20:02:39.631Z,21.85
2018-08-12T20:05:27.510Z,21.85
2018-08-12T20:08:06.018Z,21.85
2018-08-12T20:10:48.860Z,21.86
2018-08-12T20:13:25.617Z,21.90
2018-08-12T20:16:01.604Z,21.88
2018-08-12T20:18:38.440Z,21.88
2018-08-12T20:21:13.014Z,21.83
2018-08-12T20:23:48.660Z,21.72
2018-08-12T20:26:27.346Z,21.64
2018-08-12T20:29:03.831Z,21.59
2018-08-12T20:31:38.495Z,21.62
2018-08-12T20:34:13.685Z,21.60
2018-08-12T20:36:49.377Z,21.46
2018-08-12T20:39:22.627Z,21.21
2018-08-12T20:41:58.947Z,20.97
2018-08-12T20:44:33.685Z,20.70
2018-08-12T20:47:08.033Z,20.47
2018-08-12T20:49:42.699Z,20.25
2018-08-12T20:52:19.940Z,20.04
2018-08-12T20:54:54.475Z,19.80
2018-08-12T20:57:27.972Z,19.46
2018-08-12T21:00:10.263Z,19.12
2018-08-12T21:02:45.722Z,18.85
2018-08-12T21:05:19.947Z,18.66
2018-08-12T21:07:53.168Z,18.53
2018-08-12T21:10:29.310Z,18.44
2018-08-12T21:13:04.172Z,18.35
2018-08-12T21:15:36.761Z,18.36
2018-08-12T21:18:13.863Z,18.30
2018-08-12T21:20:47.278Z,18.25
2018-08-12T21:23:20.876Z,18.10
2018-08-12T21:25:55.148Z,17.93
2018-08-12T21:28:29.146Z,17.85
2018-08-12T21:31:02.858Z,17.82
2018-08-12T21:33:35.564Z,17.64
2018-08-12T21:36:09.012Z,17.43
2018-08-12T21:38:48.085Z,17.31
2018-08-12T21:41:21.605Z,17.34
2018-08-12T21:43:57.619Z,17.28
2018-08-12T21:46:30.700Z,17.16
2018-08-12T21:49:06.349Z,17.01
2018-08-12T21:51:39.679Z,16.97
2018-08-12T21:54:12.522Z,16.78
2018-08-12T21:56:48.479Z,16.58
2018-08-12T21:59:22.325Z,16.50
2018-08-12T22:02:03.468Z,16.38
2018-08-12T22:04:37.804Z,16.32
2018-08-12T22:07:12.605Z,16.36
2018-08-12T22:09:47.454Z,16.37
2018-08-12T22:12:21.321Z,16.35
2018-08-12T22:14:56.436Z,16.31
2018-08-12T22:17:29.441Z,16.37
2018-08-12T22:20:02.341Z,16.61
2018-08-12T22:22:35.007Z,16.81
2018-08-12T22:25:09.907Z,17.02
2018-08-12T22:27:42.981Z,17.15
2018-08-12T22:30:29.296Z,17.23
2018-08-12T22:33:03.681Z,17.24
2018-08-12T22:35:37.445Z,17.25
2018-08-12T22:38:11.006Z,17.35
2018-08-12T22:40:44.104Z,17.47
2018-08-12T22:43:20.349Z,17.61
2018-08-12T22:45:57.316Z,17.84
2018-08-12T22:48:31.312Z,18.02
2018-08-12T22:51:04.917Z,18.10
2018-08-12T22:53:42.742Z,18.23
2018-08-12T22:56:19.978Z,18.37
2018-08-12T22:59:05.293Z,18.41
2018-08-12T23:01:40.204Z,18.53
2018-08-12T23:04:14.825Z,18.61
2018-08-12T23:07:00.821Z,18.65
2018-08-12T23:09:37.486Z,18.69
2018-08-12T23:12:16.262Z,18.71
2018-08-12T23:14:49.632Z,18.74
2018-08-12T23:17:24.948Z,18.77
2018-08-12T23:20:02.083Z,18.82
2018-08-12T23:22:34.660Z,18.86
2018-08-12T23:25:08.567Z,18.81
2018-08-12T23:27:41.307Z,18.81
2018-08-12T23:30:15.326Z,18.73
2018-08-12T23:32:48.202Z,18.59
2018-08-12T23:35:21.363Z,18.48
2018-08-12T23:37:54.292Z,18.48
2018-08-12T23:40:27.577Z,18.39
2018-08-12T23:43:04.396Z,18.35
2018-08-12T23:45:37.192Z,18.29
2018-08-12T23:48:10.124Z,18.17
2018-08-12T23:50:42.739Z,18.06
2018-08-12T23:53:15.333Z,17.81
2018-08-12T23:55:48.477Z,17.66
2018-08-12T23:58:20.909Z,17.59
